Newport Beach, CA

11:00 PM PDT on August 27, 2014 (GMT -0700)
Long Beach | Change Station
CLOSE
Current Station
Airport
Location: Long Beach,
Elevation: 39 ft
Nearby Weather Stations
Active Advisory: High Surf Advisory

Elev 39 ft 33.81 °N, 118.15 °W | Updated 7 minutes ago

Clear
Clear
74 °F
Feels Like 74 °F
N
7
Wind Variable Wind from NW

Today
High -- | Low -- °F
--% Chance of Precip.
Yesterday
High -- | Low -- °F
Precip. -- in
6:21 AM 7:23 PM
Waxing Crescent, 6% visible
Pressure 30.01 in
Visibility 10.0 miles
Clouds Clear
Dew Point 57 °F
Humidity 55%
Rainfall 0.00 in
Snow Depth Not available.
UV 0 out of 12
Pollen 7.50 out of 12
Ozone Good
Flu Activity Not available.
METAR KLGB 280553Z 31006KT 10SM CLR 23/14 A3001 RMK AO2 SLP160 T02330139 10311 20233 51012

More Conditions Fewer Conditions

Pressure 30.01 in
Visibility 10.0 miles
Clouds Clear
Dew Point 57 °F
Humidity 55%
Rainfall 0.00 in
Snow Depth Not available.
UV 0 out of 12
Pollen 7.50 out of 12
Ozone Good
Flu Activity Not available.
METAR KLGB 280553Z 31006KT 10SM CLR 23/14 A3001 RMK AO2 SLP160 T02330139 10311 20233 51012

More Conditions Fewer Conditions

10-Day Weather Forecast

Almanac

Astronomy

Aug. 27, 2014 Rise Set
Actual Time 6:21 AM PDT 7:23 PM PDT
Civil Twilight 5:56 AM PDT 7:48 PM PDT
Nautical Twilight 5:25 AM PDT 8:18 PM PDT
Astronomical Twilight 4:54 AM PDT 8:50 PM PDT
Moon 8:14 AM PDT (8/27) 8:26 PM PDT (8/27)
Length of Visible Light 13h 52m
Length of Day
13h 01m
Tomorrow will be 1m 57s shorter.
Waxing Crescent, 6% of the Moon is Illuminated
Aug 28
Waxing Crescent
Sep 2
First Quarter
Sep 8
Full
Sep 15
Last Quarter
Sep 24
New

Yesterday's Extremes

State Highs State Lows

Community

WunderPhotos

Upload Photos

1,747,910 photos uploaded!

Nearby

Air Quality

  Air Quality AQ Index Pollutant
Yesterday Good
OZONE
Current Good
OZONE
Thursday Good
PM10
Thursday Good
OZONE
Thursday Good
CO
Thursday Good
NO2

Snow Depth

Station Depth Elevation
Leavitt Lake 0 in 9400 ft
Leavitt Meadows 0 in 7200 ft
Monitor Pass 0 in 8350 ft
Blue Lakes 0 in 8000 ft
Hagan's Meadow 0 in 8000 ft

Earthquake Activity

City Distance Mag. Time & Date
San Fernando, California 56 miles 2.5 4:57 AM PDT
2014-08-26
Maneadero, Mexico 161 miles 2.8 1:03 PM PDT
2014-08-25
Minimum magnitude displayed is 2.5.

Coastal Water Temperatures

Place Temperature
Santa Monica Pier 71.1 °F
Los Angeles, CA 66.0 °F
La Jolla, CA 73.0 °F

Nearby Weather Stations